createdAt,value
2023-02-12T00:00:43.600Z,16.5
2023-02-12T00:01:45.088Z,17.20000076
2023-02-12T00:02:45.795Z,17.60000038
2023-02-12T00:03:46.552Z,16.10000038
2023-02-12T00:05:17.835Z,16.89999962
2023-02-12T00:06:19.275Z,16.20000076
2023-02-12T00:07:19.912Z,18.39999962
2023-02-12T00:08:20.586Z,16.79999924
2023-02-12T00:09:21.325Z,16.79999924
2023-02-12T00:10:22.029Z,16.70000076
2023-02-12T00:11:22.626Z,16.60000038
2023-02-12T00:12:23.302Z,18.29999924
2023-02-12T00:13:23.974Z,15.89999962
2023-02-12T00:14:24.608Z,16.5
2023-02-12T00:15:25.871Z,16.39999962
2023-02-12T00:16:26.364Z,16.29999924
2023-02-12T00:17:27.742Z,17
2023-02-12T00:18:28.430Z,17.29999924
2023-02-12T00:19:29.097Z,16.79999924
2023-02-12T00:20:29.998Z,17.29999924
2023-02-12T00:21:30.462Z,17.20000076
2023-02-12T00:22:31.834Z,16.39999962
2023-02-12T00:23:32.422Z,16.5
2023-02-12T00:24:33.111Z,16
2023-02-12T00:25:33.857Z,16.60000038
2023-02-12T00:26:35.348Z,16.60000038
2023-02-12T00:27:36.001Z,16.70000076
2023-02-12T00:28:36.695Z,17
2023-02-12T00:29:37.323Z,16.20000076
2023-02-12T00:30:38.098Z,17.5
2023-02-12T00:31:38.844Z,17.29999924
2023-02-12T00:32:39.478Z,17.89999962
2023-02-12T00:33:40.185Z,16.39999962
2023-02-12T00:34:40.972Z,16.39999962
2023-02-12T00:35:41.795Z,17.29999924
2023-02-12T00:36:43.325Z,17.60000038
2023-02-12T00:37:44.019Z,17.10000038
2023-02-12T00:38:44.732Z,15.69999981
2023-02-12T00:39:45.326Z,15.89999962
2023-02-12T00:40:46.078Z,16
2023-02-12T00:42:17.485Z,17
2023-02-12T00:43:18.103Z,16.60000038
2023-02-12T00:44:18.769Z,17.10000038
2023-02-12T00:45:20.499Z,15.89999962
2023-02-12T00:46:21.284Z,16.39999962
2023-02-12T00:47:22.493Z,17.60000038
2023-02-12T00:48:23.208Z,17
2023-02-12T00:49:23.902Z,17.29999924
2023-02-12T00:50:24.470Z,17.39999962
2023-02-12T00:51:25.279Z,17.70000076
2023-02-12T00:52:25.852Z,16.60000038
2023-02-12T00:53:26.502Z,17.39999962
2023-02-12T00:54:27.156Z,16.10000038
2023-02-12T00:55:27.793Z,17.5
2023-02-12T00:56:29.279Z,17.20000076
2023-02-12T00:57:30.109Z,17.29999924
2023-02-12T00:58:31.306Z,16.5
2023-02-12T00:59:32.004Z,15.30000019
2023-02-12T01:00:32.616Z,16.89999962
2023-02-12T01:01:33.354Z,16.60000038
2023-02-12T01:02:34.459Z,16.29999924
2023-02-12T01:03:35.233Z,16.5
2023-02-12T01:04:36.003Z,15.39999962
2023-02-12T01:05:36.663Z,16
2023-02-12T01:06:38.326Z,16.89999962
2023-02-12T01:07:38.966Z,16.70000076
2023-02-12T01:08:39.731Z,16.20000076
2023-02-12T01:09:40.708Z,16.29999924
2023-02-12T01:10:41.339Z,16.70000076
2023-02-12T01:11:42.002Z,16.20000076
2023-02-12T01:12:42.653Z,16
2023-02-12T01:13:43.393Z,15.80000019
2023-02-12T01:14:44.124Z,17.20000076
2023-02-12T01:15:45.398Z,16.89999962
2023-02-12T01:17:17.144Z,16.5
2023-02-12T01:18:17.768Z,17.10000038
2023-02-12T01:19:18.402Z,16.79999924
2023-02-12T01:20:19.138Z,16.29999924
2023-02-12T01:21:19.938Z,18.39999962
2023-02-12T01:22:20.592Z,16.60000038
2023-02-12T01:23:21.236Z,16.29999924
2023-02-12T01:24:21.905Z,17.10000038
2023-02-12T01:25:22.699Z,16.70000076
2023-02-12T01:26:24.074Z,16.29999924
2023-02-12T01:27:24.774Z,17
2023-02-12T01:28:26.127Z,16.5
2023-02-12T01:29:26.758Z,16.70000076
2023-02-12T01:30:27.481Z,16.79999924
2023-02-12T01:31:28.308Z,15.5
2023-02-12T01:32:28.920Z,17.29999924
2023-02-12T01:33:29.697Z,17
2023-02-12T01:34:30.323Z,17.89999962
2023-02-12T01:35:30.945Z,16.10000038
2023-02-12T01:36:32.547Z,17.60000038
2023-02-12T01:37:33.223Z,15.10000038
2023-02-12T01:38:33.864Z,16.20000076
2023-02-12T01:39:34.536Z,16.29999924
2023-02-12T01:40:35.153Z,16.29999924
2023-02-12T01:41:35.871Z,17.20000076
2023-02-12T01:42:36.626Z,16.29999924
2023-02-12T01:43:37.262Z,16.89999962
2023-02-12T01:44:38.501Z,17.10000038
2023-02-12T01:45:39.106Z,16
2023-02-12T01:46:40.577Z,16
2023-02-12T01:47:41.247Z,17.10000038
2023-02-12T01:48:41.867Z,17.10000038
2023-02-12T01:49:42.522Z,17
2023-02-12T01:50:43.247Z,17.20000076
2023-02-12T01:51:43.837Z,16.20000076
2023-02-12T01:52:44.604Z,17.10000038
2023-02-12T01:53:45.237Z,17.39999962
2023-02-12T01:55:16.559Z,17
2023-02-12T01:56:17.166Z,18.39999962
2023-02-12T01:57:18.785Z,16.70000076
2023-02-12T01:58:19.551Z,17
2023-02-12T01:59:20.098Z,16.39999962
2023-02-12T02:00:20.843Z,16.10000038
2023-02-12T02:01:21.540Z,16.39999962
2023-02-12T02:02:22.159Z,16.60000038
2023-02-12T02:03:22.919Z,16.29999924
2023-02-12T02:04:23.596Z,15.80000019
2023-02-12T02:05:24.996Z,16.39999962
2023-02-12T02:06:25.797Z,16.29999924
2023-02-12T02:07:27.276Z,16.60000038
2023-02-12T02:08:27.961Z,16.5
2023-02-12T02:09:28.657Z,16.10000038
2023-02-12T02:10:29.264Z,15.89999962
2023-02-12T02:11:30.047Z,16.5
2023-02-12T02:12:31.259Z,15.89999962
2023-02-12T02:13:32.002Z,16.20000076
2023-02-12T02:14:32.700Z,16.60000038
2023-02-12T02:15:34.314Z,15.69999981
2023-02-12T02:16:36.015Z,16.60000038
2023-02-12T02:17:36.719Z,16.79999924
2023-02-12T02:18:38.295Z,16.10000038
2023-02-12T02:19:38.988Z,15.10000038
2023-02-12T02:20:39.689Z,16.20000076
2023-02-12T02:21:40.420Z,17.10000038
2023-02-12T02:22:41.074Z,15.89999962
2023-02-12T02:23:41.725Z,15.60000038
2023-02-12T02:24:42.334Z,15.5
2023-02-12T02:25:43.050Z,16.79999924
2023-02-12T02:26:44.480Z,16.29999924
2023-02-12T02:27:45.584Z,15.5
2023-02-12T02:29:16.517Z,15.5
2023-02-12T02:30:17.144Z,15.60000038
2023-02-12T02:31:18.010Z,15.39999962
2023-02-12T02:32:18.608Z,15.39999962
2023-02-12T02:33:19.253Z,15.39999962
2023-02-12T02:34:19.848Z,16.20000076
2023-02-12T02:35:20.415Z,15.39999962
2023-02-12T02:36:21.036Z,17
2023-02-12T02:37:22.370Z,16.39999962
2023-02-12T02:38:23.110Z,17
2023-02-12T02:39:23.768Z,14.89999962
2023-02-12T02:40:24.362Z,16.20000076
2023-02-12T02:41:25.012Z,15.39999962
2023-02-12T02:42:25.603Z,15.19999981
2023-02-12T02:43:26.281Z,15.39999962
2023-02-12T02:44:27.046Z,16.29999924
2023-02-12T02:45:28.329Z,16
2023-02-12T02:46:29.112Z,16.5
2023-02-12T02:47:30.409Z,16.70000076
2023-02-12T02:48:31.074Z,15.30000019
2023-02-12T02:49:31.810Z,14.80000019
2023-02-12T02:50:32.472Z,15.80000019
2023-02-12T02:51:33.193Z,14.60000038
2023-02-12T02:52:33.874Z,15.39999962
2023-02-12T02:53:34.550Z,16.5
2023-02-12T02:54:35.248Z,15.39999962
2023-02-12T02:55:36.005Z,16.20000076
2023-02-12T02:56:36.693Z,16
2023-02-12T02:57:38.340Z,16.29999924
2023-02-12T02:58:39.021Z,15
2023-02-12T02:59:39.806Z,16.29999924
2023-02-12T03:00:40.792Z,14.60000038
2023-02-12T03:01:41.425Z,15.80000019
2023-02-12T03:02:42.265Z,16.39999962
2023-02-12T03:03:42.932Z,16
2023-02-12T03:04:43.602Z,15.5
2023-02-12T03:05:44.309Z,15.80000019
2023-02-12T03:07:16.523Z,16.29999924
2023-02-12T03:08:17.224Z,15.69999981
2023-02-12T03:09:18.024Z,15.19999981
2023-02-12T03:10:18.776Z,16.39999962
2023-02-12T03:11:19.483Z,16.70000076
2023-02-12T03:12:20.208Z,16.79999924
2023-02-12T03:13:20.926Z,15
2023-02-12T03:14:21.574Z,14.89999962
2023-02-12T03:15:22.227Z,16.79999924
2023-02-12T03:16:23.895Z,16.39999962
2023-02-12T03:17:25.470Z,16.39999962
2023-02-12T03:18:26.103Z,16.10000038
2023-02-12T03:19:26.773Z,15.30000019
2023-02-12T03:20:27.521Z,16.10000038
2023-02-12T03:21:28.310Z,15
2023-02-12T03:22:29.022Z,15.89999962
2023-02-12T03:23:29.890Z,15.10000038
2023-02-12T03:24:30.586Z,15.19999981
2023-02-12T03:25:31.279Z,15
2023-02-12T03:26:31.952Z,15.5
2023-02-12T03:27:33.556Z,16.20000076
2023-02-12T03:28:34.438Z,15.19999981
2023-02-12T03:29:35.006Z,16.10000038
2023-02-12T03:30:35.739Z,14.5
2023-02-12T03:31:36.408Z,16
2023-02-12T03:32:37.148Z,16.20000076
2023-02-12T03:33:37.839Z,15.19999981
2023-02-12T03:34:38.546Z,16.29999924
2023-02-12T03:35:39.271Z,15.69999981
2023-02-12T03:36:39.890Z,15.30000019
2023-02-12T03:37:40.837Z,16.5
2023-02-12T03:38:42.422Z,16.29999924
2023-02-12T03:39:43.023Z,14.60000038
2023-02-12T03:40:43.650Z,15.19999981
2023-02-12T03:41:44.682Z,14.19999981
2023-02-12T03:43:15.757Z,15.30000019
2023-02-12T03:44:16.560Z,15.19999981
2023-02-12T03:45:17.129Z,15
2023-02-12T03:46:17.833Z,15.19999981
2023-02-12T03:47:18.987Z,15.5
2023-02-12T03:48:19.644Z,16
2023-02-12T03:49:20.416Z,14.89999962
2023-02-12T03:50:21.062Z,14.89999962
2023-02-12T03:51:21.817Z,15.80000019
2023-02-12T03:52:22.367Z,16.39999962
2023-02-12T03:53:23.027Z,16.39999962
2023-02-12T03:54:23.724Z,16.29999924
2023-02-12T03:55:24.374Z,17.10000038
2023-02-12T03:56:25.164Z,16
2023-02-12T03:57:26.477Z,15.5
2023-02-12T03:58:27.111Z,16
2023-02-12T03:59:27.740Z,14.5
2023-02-12T04:00:28.542Z,15.60000038
2023-02-12T04:01:29.382Z,16.70000076
2023-02-12T04:02:29.898Z,14.60000038
2023-02-12T04:03:30.616Z,14.69999981
2023-02-12T04:04:31.365Z,16.20000076
2023-02-12T04:05:32.005Z,14.89999962
2023-02-12T04:06:32.734Z,15
2023-02-12T04:07:34.010Z,15.19999981
2023-02-12T04:08:34.673Z,15.80000019
2023-02-12T04:09:35.367Z,14.30000019
2023-02-12T04:10:35.960Z,15.69999981
2023-02-12T04:11:36.767Z,15.10000038
2023-02-12T04:12:37.546Z,14.5
2023-02-12T04:13:38.233Z,14.30000019
2023-02-12T04:14:38.992Z,14.19999981
2023-02-12T04:15:40.484Z,16
2023-02-12T04:16:41.180Z,14.30000019
2023-02-12T04:17:42.506Z,15.30000019
2023-02-12T04:18:43.241Z,13.80000019
2023-02-12T04:19:44.339Z,14.30000019
2023-02-12T04:21:15.381Z,15.30000019
2023-02-12T04:22:15.989Z,16
2023-02-12T04:23:16.716Z,15
2023-02-12T04:24:17.372Z,16.20000076
2023-02-12T04:25:18.000Z,15.10000038
2023-02-12T04:26:18.680Z,15.39999962
2023-02-12T04:27:19.325Z,16
2023-02-12T04:28:20.983Z,16.39999962
2023-02-12T04:29:21.625Z,15
2023-02-12T04:30:22.377Z,14.5
2023-02-12T04:31:23.240Z,16.79999924
2023-02-12T04:32:23.739Z,16.5
2023-02-12T04:33:24.352Z,17
2023-02-12T04:34:25.061Z,16.20000076
2023-02-12T04:35:25.812Z,15.80000019
2023-02-12T04:36:26.456Z,15.69999981
2023-02-12T04:37:27.173Z,15.10000038
2023-02-12T04:38:28.793Z,16.10000038
2023-02-12T04:39:29.547Z,15.10000038
2023-02-12T04:40:30.283Z,15.19999981
2023-02-12T04:41:30.875Z,14.69999981
2023-02-12T04:42:31.627Z,14.19999981
2023-02-12T04:43:34.160Z,15.5
2023-02-12T04:44:32.939Z,14.80000019
2023-02-12T04:45:34.558Z,14.69999981
2023-02-12T04:46:35.292Z,15.89999962
2023-02-12T04:47:36.030Z,14.5
2023-02-12T04:48:37.300Z,15.10000038
2023-02-12T04:49:37.979Z,15.80000019
2023-02-12T04:50:38.785Z,14.89999962
2023-02-12T04:51:39.446Z,15.19999981
2023-02-12T04:52:40.146Z,14.5
2023-02-12T04:53:40.878Z,15.5
2023-02-12T04:54:41.604Z,14.39999962
2023-02-12T04:55:42.242Z,14.5
2023-02-12T04:56:42.929Z,16.10000038
2023-02-12T04:58:14.997Z,13.80000019
2023-02-12T04:59:15.702Z,15.19999981
2023-02-12T05:00:16.315Z,14.5
2023-02-12T05:01:17.185Z,14.10000038
2023-02-12T05:02:17.818Z,15.30000019
2023-02-12T05:03:18.446Z,14.39999962
2023-02-12T05:04:19.202Z,16.29999924
2023-02-12T05:05:20.066Z,15.10000038
2023-02-12T05:06:20.628Z,16.79999924
2023-02-12T05:07:21.373Z,14.89999962
2023-02-12T05:08:22.841Z,14.10000038
2023-02-12T05:09:23.596Z,14.60000038
2023-02-12T05:10:24.223Z,16
2023-02-12T05:11:24.933Z,14.5
2023-02-12T05:12:25.552Z,15.69999981
2023-02-12T05:13:26.890Z,15.10000038
2023-02-12T05:14:27.614Z,15.89999962
2023-02-12T05:15:28.323Z,15.80000019
2023-02-12T05:16:28.996Z,15.19999981
2023-02-12T05:17:29.664Z,16.10000038
2023-02-12T05:18:31.071Z,16
2023-02-12T05:19:31.828Z,14.60000038
2023-02-12T05:20:32.599Z,16
2023-02-12T05:21:33.307Z,15.89999962
2023-02-12T05:22:33.967Z,16.60000038
2023-02-12T05:23:34.650Z,16.39999962
2023-02-12T05:24:35.322Z,15.30000019
2023-02-12T05:25:36.094Z,15.30000019
2023-02-12T05:26:36.679Z,15.89999962
2023-02-12T05:27:37.319Z,15.69999981
2023-02-12T05:28:38.877Z,15.80000019
2023-02-12T05:29:39.587Z,16.20000076
2023-02-12T05:30:40.385Z,16.10000038
2023-02-12T05:31:41.285Z,16.60000038
2023-02-12T05:32:41.781Z,14.80000019
2023-02-12T05:33:42.362Z,14.39999962
2023-02-12T05:34:43.448Z,16.60000038
2023-02-12T05:36:14.517Z,15.60000038
2023-02-12T05:37:15.246Z,15.19999981
2023-02-12T05:38:16.463Z,16.29999924
2023-02-12T05:39:17.130Z,15.60000038
2023-02-12T05:40:17.732Z,15.69999981
2023-02-12T05:41:18.406Z,16.29999924
2023-02-12T05:42:19.120Z,17
2023-02-12T05:43:19.862Z,15.69999981
2023-02-12T05:44:20.620Z,16.79999924
2023-02-12T05:45:21.347Z,15.60000038
2023-02-12T05:46:22.214Z,14.89999962
2023-02-12T05:47:23.318Z,14.69999981
2023-02-12T05:48:24.981Z,15.89999962
2023-02-12T05:49:25.651Z,15.69999981
2023-02-12T05:50:26.296Z,14.89999962
2023-02-12T05:51:27.050Z,15.60000038
2023-02-12T05:52:27.850Z,15.80000019
2023-02-12T05:53:28.686Z,15.5
2023-02-12T05:54:29.238Z,16.89999962
2023-02-12T05:55:29.981Z,15.89999962
2023-02-12T05:56:30.650Z,15.80000019
2023-02-12T05:57:31.380Z,15.5
2023-02-12T05:58:32.980Z,15.10000038
2023-02-12T05:59:33.670Z,16.5
2023-02-12T06:00:34.361Z,16.10000038
2023-02-12T06:01:35.031Z,15
2023-02-12T06:02:35.858Z,15.60000038
2023-02-12T06:03:36.476Z,17.29999924
2023-02-12T06:04:37.109Z,15.60000038
2023-02-12T06:05:37.738Z,15.39999962
2023-02-12T06:06:38.303Z,15.89999962
2023-02-12T06:07:38.955Z,15.69999981
2023-02-12T06:08:40.525Z,16.39999962
2023-02-12T06:09:41.222Z,16.5
2023-02-12T06:10:41.902Z,14.69999981
2023-02-12T06:11:43.154Z,15.69999981
2023-02-12T06:13:14.164Z,16.29999924
2023-02-12T06:14:14.927Z,16.10000038
2023-02-12T06:15:15.538Z,16.29999924
2023-02-12T06:16:16.197Z,16.5
2023-02-12T06:17:17.445Z,16
2023-02-12T06:18:18.243Z,16
2023-02-12T06:19:19.877Z,16.60000038
2023-02-12T06:20:20.554Z,15.30000019
2023-02-12T06:21:21.171Z,16.60000038
2023-02-12T06:22:21.878Z,15.5
2023-02-12T06:23:22.641Z,16.5
2023-02-12T06:24:23.333Z,15
2023-02-12T06:25:24.158Z,15.39999962
2023-02-12T06:26:24.766Z,16
2023-02-12T06:27:25.490Z,14.80000019
2023-02-12T06:28:27.136Z,15.30000019
2023-02-12T06:29:27.641Z,15.19999981
2023-02-12T06:30:28.358Z,15
2023-02-12T06:31:29.289Z,15.19999981
2023-02-12T06:32:30.540Z,15.5
2023-02-12T06:33:31.286Z,15.19999981
2023-02-12T06:34:31.932Z,14.10000038
2023-02-12T06:35:32.620Z,15.19999981
2023-02-12T06:36:33.339Z,15.60000038
2023-02-12T06:37:34.061Z,15.39999962
2023-02-12T06:38:35.483Z,15.80000019
2023-02-12T06:39:36.157Z,16
2023-02-12T06:40:36.912Z,15.19999981
2023-02-12T06:41:37.561Z,15.10000038
2023-02-12T06:42:38.194Z,16.10000038
2023-02-12T06:43:38.927Z,15.30000019
2023-02-12T06:44:39.718Z,14.89999962
2023-02-12T06:45:40.696Z,15.69999981
2023-02-12T06:46:41.492Z,16
2023-02-12T06:48:13.311Z,14.39999962
2023-02-12T06:49:14.784Z,15.80000019
2023-02-12T06:50:15.382Z,16.29999924
2023-02-12T06:51:15.998Z,15.5
2023-02-12T06:52:16.679Z,14.80000019
2023-02-12T06:53:17.340Z,15.60000038
2023-02-12T06:54:18.077Z,16.5
2023-02-12T06:55:18.639Z,16.39999962
2023-02-12T06:56:19.378Z,17.39999962
2023-02-12T06:57:20.033Z,17.60000038
2023-02-12T06:58:21.516Z,16.79999924
2023-02-12T06:59:22.253Z,16.79999924
2023-02-12T07:00:23.806Z,16.89999962
2023-02-12T07:01:24.516Z,17.29999924
2023-02-12T07:02:25.126Z,16.20000076
2023-02-12T07:03:25.722Z,17.10000038
2023-02-12T07:04:26.561Z,18.29999924
2023-02-12T07:05:27.264Z,17.29999924
2023-02-12T07:06:27.925Z,17.10000038
2023-02-12T07:07:28.568Z,18
2023-02-12T07:08:29.287Z,18.70000076
2023-02-12T07:09:30.878Z,20.60000038
2023-02-12T07:10:31.603Z,20.20000076
2023-02-12T07:11:32.349Z,20.20000076
2023-02-12T07:12:32.967Z,19.29999924
2023-02-12T07:13:33.649Z,19.60000038
2023-02-12T07:14:34.416Z,17.89999962
2023-02-12T07:15:34.981Z,21
2023-02-12T07:16:36.548Z,19.20000076
2023-02-12T07:17:37.197Z,19.5
2023-02-12T07:18:38.765Z,19.70000076
2023-02-12T07:19:40.296Z,18.70000076
2023-02-12T07:20:41.172Z,19
2023-02-12T07:21:42.313Z,18.20000076
2023-02-12T07:23:13.409Z,18.70000076
2023-02-12T07:24:14.040Z,18.89999962
2023-02-12T07:25:14.814Z,19.20000076
2023-02-12T07:26:15.486Z,19.29999924
2023-02-12T07:27:16.168Z,20.29999924
2023-02-12T07:28:16.993Z,17.5
2023-02-12T07:29:18.464Z,16
2023-02-12T07:30:19.112Z,18.5
2023-02-12T07:31:20.007Z,16
2023-02-12T07:32:20.478Z,15.60000038
2023-02-12T07:33:21.191Z,16.79999924
2023-02-12T07:34:21.796Z,14.19999981
2023-02-12T07:35:22.528Z,14.80000019
2023-02-12T07:36:23.227Z,17.10000038
2023-02-12T07:37:23.924Z,17.70000076
2023-02-12T07:38:24.637Z,18.70000076
2023-02-12T07:39:25.970Z,17.29999924
2023-02-12T07:40:26.602Z,16.10000038
2023-02-12T07:41:27.262Z,15
2023-02-12T07:42:28.013Z,15
2023-02-12T07:43:29.468Z,14.5
2023-02-12T07:44:30.273Z,15.10000038
2023-02-12T07:45:31.061Z,15.39999962
2023-02-12T07:46:31.642Z,13
2023-02-12T07:47:33.018Z,12.80000019
2023-02-12T07:48:33.734Z,12.80000019
2023-02-12T07:49:35.282Z,13.80000019
2023-02-12T07:50:35.942Z,13.80000019
2023-02-12T07:51:36.697Z,13.10000038
2023-02-12T07:52:37.437Z,13.69999981
2023-02-12T07:53:38.149Z,13.10000038
2023-02-12T07:54:38.834Z,12.80000019
2023-02-12T07:55:39.472Z,13.10000038
2023-02-12T07:56:40.256Z,14.30000019
2023-02-12T07:57:40.931Z,13.80000019
2023-02-12T07:59:12.966Z,13.19999981
2023-02-12T08:00:13.695Z,12.80000019
2023-02-12T08:01:14.358Z,13
2023-02-12T08:02:15.214Z,12.39999962
2023-02-12T08:03:15.824Z,12.30000019
2023-02-12T08:04:16.590Z,12.39999962
2023-02-12T08:05:17.174Z,12.80000019
2023-02-12T08:06:17.916Z,13
2023-02-12T08:07:18.462Z,12.60000038
2023-02-12T08:08:19.086Z,12.5
2023-02-12T08:09:20.589Z,12.80000019
2023-02-12T08:10:21.225Z,12.60000038
2023-02-12T08:11:22.117Z,13
2023-02-12T08:12:23.259Z,13.10000038
2023-02-12T08:13:23.900Z,12.19999981
2023-02-12T08:14:24.566Z,13.19999981
2023-02-12T08:15:25.404Z,12.69999981
2023-02-12T08:16:26.248Z,13.10000038
2023-02-12T08:17:26.925Z,12.39999962
2023-02-12T08:18:28.289Z,13.30000019
2023-02-12T08:19:29.466Z,13.30000019
2023-02-12T08:20:30.179Z,12.69999981
2023-02-12T08:21:30.915Z,14.19999981
2023-02-12T08:22:31.559Z,13.80000019
2023-02-12T08:23:32.220Z,13.5
2023-02-12T08:24:32.965Z,13.30000019
2023-02-12T08:25:33.594Z,15.89999962
2023-02-12T08:26:34.298Z,14.69999981
2023-02-12T08:27:34.960Z,15.89999962
2023-02-12T08:28:35.879Z,15.39999962
2023-02-12T08:29:36.993Z,14.89999962
2023-02-12T08:30:37.749Z,15.80000019
2023-02-12T08:31:38.416Z,15.10000038
2023-02-12T08:32:39.002Z,16
2023-02-12T08:33:39.700Z,15
2023-02-12T08:34:40.639Z,15.80000019
2023-02-12T08:36:12.770Z,15.89999962
2023-02-12T08:37:14.184Z,15.30000019
2023-02-12T08:38:14.966Z,16
2023-02-12T08:39:15.613Z,14.69999981
2023-02-12T08:40:16.702Z,15.39999962
2023-02-12T08:41:19.209Z,16
2023-02-12T08:42:17.918Z,14.5
2023-02-12T08:43:18.607Z,15.5
2023-02-12T08:44:19.299Z,15.19999981
2023-02-12T08:45:19.891Z,15.19999981
2023-02-12T08:46:20.639Z,15.5
2023-02-12T08:47:21.946Z,16.29999924
2023-02-12T08:48:23.509Z,14.69999981
2023-02-12T08:49:24.232Z,15.69999981
2023-02-12T08:50:25.787Z,15.69999981
2023-02-12T08:51:26.388Z,15.10000038
2023-02-12T08:52:26.983Z,15.19999981
2023-02-12T08:53:27.651Z,16.29999924
2023-02-12T08:54:28.277Z,15.5
2023-02-12T08:55:28.899Z,15.69999981
2023-02-12T08:56:29.590Z,14.89999962
2023-02-12T08:57:30.189Z,16
2023-02-12T08:58:30.862Z,14.69999981
2023-02-12T08:59:31.511Z,16.20000076
2023-02-12T09:00:32.826Z,16.89999962
2023-02-12T09:01:33.621Z,15.89999962
2023-02-12T09:02:34.180Z,15.60000038
2023-02-12T09:03:34.617Z,15.5
2023-02-12T09:04:35.284Z,15.5
2023-02-12T09:05:35.906Z,15.60000038
2023-02-12T09:06:36.518Z,16.5
2023-02-12T09:07:37.221Z,16
2023-02-12T09:08:37.818Z,16.39999962
2023-02-12T09:09:39.431Z,14.89999962
2023-02-12T09:10:40.071Z,14.39999962
2023-02-12T09:12:11.557Z,16.10000038
2023-02-12T09:13:12.227Z,16.29999924
2023-02-12T09:14:13.282Z,16.29999924
2023-02-12T09:15:13.877Z,17.10000038
2023-02-12T09:16:14.583Z,16.79999924
2023-02-12T09:17:15.072Z,15.69999981
2023-02-12T09:18:15.653Z,15.80000019
2023-02-12T09:19:16.205Z,15.89999962
2023-02-12T09:20:16.677Z,16.5
2023-02-12T09:21:18.289Z,16.79999924
2023-02-12T09:22:18.759Z,15.89999962
2023-02-12T09:23:19.344Z,16.79999924
2023-02-12T09:24:20.093Z,16.70000076
2023-02-12T09:25:20.617Z,16.5
2023-02-12T09:26:21.146Z,16.39999962
2023-02-12T09:27:21.911Z,16.60000038
2023-02-12T09:28:22.812Z,16.60000038
2023-02-12T09:29:23.505Z,16.79999924
2023-02-12T09:30:24.899Z,16.39999962
2023-02-12T09:31:25.701Z,17.39999962
2023-02-12T09:32:26.089Z,16.5
2023-02-12T09:33:26.641Z,16.89999962
2023-02-12T09:34:27.431Z,16.20000076
2023-02-12T09:35:27.837Z,17.39999962
2023-02-12T09:36:29.218Z,16.60000038
2023-02-12T09:37:29.710Z,15.80000019
2023-02-12T09:38:30.330Z,17.89999962
2023-02-12T09:39:31.140Z,16.89999962
2023-02-12T09:40:32.383Z,16.29999924
2023-02-12T09:41:33.094Z,18.5
2023-02-12T09:42:33.582Z,17.89999962
2023-02-12T09:43:34.172Z,18.29999924
2023-02-12T09:44:34.937Z,17.79999924
2023-02-12T09:45:35.402Z,18.29999924
2023-02-12T09:46:35.960Z,18.5
2023-02-12T09:47:36.709Z,19.70000076
2023-02-12T09:48:37.207Z,18
2023-02-12T09:49:37.712Z,18.5
2023-02-12T09:50:39.351Z,19.79999924
2023-02-12T09:51:40.659Z,18.70000076
2023-02-12T09:53:11.303Z,19.79999924
2023-02-12T09:54:12.028Z,20
2023-02-12T09:55:12.695Z,19.60000038
2023-02-12T09:56:13.032Z,18.39999962
2023-02-12T09:57:13.498Z,19.29999924
2023-02-12T09:58:14.058Z,19.60000038
2023-02-12T09:59:14.612Z,18.20000076
2023-02-12T10:00:16.008Z,18.10000038
2023-02-12T10:01:16.541Z,18.70000076
2023-02-12T10:02:16.966Z,19.5
2023-02-12T10:03:17.477Z,19.60000038
2023-02-12T10:04:18.318Z,19.70000076
2023-02-12T10:05:18.850Z,18.89999962
2023-02-12T10:06:19.408Z,19.5
2023-02-12T10:07:20.063Z,18.89999962
2023-02-12T10:08:24.519Z,21.10000038
2023-02-12T10:09:20.982Z,20.39999962
2023-02-12T10:10:22.590Z,19.5
2023-02-12T10:11:23.123Z,19
2023-02-12T10:12:23.579Z,20.79999924
2023-02-12T10:13:24.198Z,20.39999962
2023-02-12T10:14:24.701Z,19.70000076
2023-02-12T10:15:25.281Z,18.89999962
2023-02-12T10:16:25.955Z,20
2023-02-12T10:17:27.483Z,18.5
2023-02-12T10:18:28.222Z,19.39999962
2023-02-12T10:19:28.691Z,19.70000076
2023-02-12T10:20:29.967Z,19.39999962
2023-02-12T10:21:30.459Z,21.29999924
2023-02-12T10:22:30.967Z,20.20000076
2023-02-12T10:23:31.667Z,19.89999962
2023-02-12T10:24:32.206Z,20.39999962
2023-02-12T10:25:32.761Z,21.29999924
2023-02-12T10:26:33.321Z,19.60000038
2023-02-12T10:27:33.905Z,19.79999924
2023-02-12T10:28:34.712Z,19.39999962
2023-02-12T10:29:35.165Z,20.29999924
2023-02-12T10:30:36.623Z,19.89999962
2023-02-12T10:31:37.847Z,20.20000076
2023-02-12T10:32:38.939Z,19.5
2023-02-12T10:33:39.897Z,19.10000038
2023-02-12T10:35:11.758Z,20.29999924
2023-02-12T10:36:13.229Z,20.29999924
2023-02-12T10:37:14.006Z,19.70000076
2023-02-12T10:38:14.681Z,21.60000038
2023-02-12T10:39:15.273Z,21
2023-02-12T10:40:16.786Z,17.70000076
2023-02-12T10:41:18.207Z,19.20000076
2023-02-12T10:42:18.842Z,20.39999962
2023-02-12T10:43:19.572Z,18.89999962
2023-02-12T10:44:20.260Z,18.60000038
2023-02-12T10:45:21.028Z,18.20000076
2023-02-12T10:46:22.338Z,18.29999924
2023-02-12T10:47:22.938Z,17.79999924
2023-02-12T10:48:24.244Z,18.29999924
2023-02-12T10:49:25.909Z,18.10000038
2023-02-12T10:50:27.475Z,18.60000038
2023-02-12T10:51:28.136Z,18.70000076
2023-02-12T10:52:28.808Z,16.29999924
2023-02-12T10:53:29.370Z,17
2023-02-12T10:54:31.036Z,17.89999962
2023-02-12T10:55:31.676Z,17.89999962
2023-02-12T10:56:32.800Z,17.79999924
2023-02-12T10:57:33.468Z,18.70000076
2023-02-12T10:58:34.943Z,18.10000038
2023-02-12T10:59:35.972Z,18.29999924
2023-02-12T11:00:36.937Z,18.5
2023-02-12T11:01:37.582Z,18.29999924
2023-02-12T11:02:38.092Z,18.39999962
2023-02-12T11:03:38.693Z,19.29999924
2023-02-12T11:04:39.809Z,18.79999924
2023-02-12T11:06:11.098Z,18.5
2023-02-12T11:07:11.711Z,18.10000038
2023-02-12T11:08:12.331Z,18
2023-02-12T11:09:12.936Z,18.5
2023-02-12T11:10:13.575Z,18.79999924
2023-02-12T11:11:14.860Z,17.70000076
2023-02-12T11:12:15.570Z,18.60000038
2023-02-12T11:13:16.853Z,19.89999962
2023-02-12T11:14:17.478Z,18.60000038
2023-02-12T11:15:18.088Z,18.29999924
2023-02-12T11:16:18.855Z,19
2023-02-12T11:17:20.453Z,17.89999962
2023-02-12T11:18:21.965Z,18.29999924
2023-02-12T11:19:23.469Z,17.10000038
2023-02-12T11:20:23.762Z,18.20000076
2023-02-12T11:21:25.205Z,17.70000076
2023-02-12T11:22:25.885Z,17.79999924
2023-02-12T11:23:27.398Z,17.79999924
2023-02-12T11:24:28.061Z,16.5
2023-02-12T11:25:29.438Z,18.89999962
2023-02-12T11:26:30.929Z,18.5
2023-02-12T11:27:31.576Z,17.70000076
2023-02-12T11:28:32.981Z,18
2023-02-12T11:29:34.190Z,19.20000076
2023-02-12T11:30:35.752Z,18.60000038
2023-02-12T11:31:37.135Z,18
2023-02-12T11:32:37.617Z,18.5
2023-02-12T11:33:38.264Z,17.79999924
2023-02-12T11:34:39.371Z,19.10000038
2023-02-12T11:36:11.239Z,18.70000076
2023-02-12T11:37:12.037Z,18.60000038
2023-02-12T11:38:12.691Z,18.79999924
2023-02-12T11:39:13.474Z,19.10000038